sensor_id;sensor_type;location;lat;lon;timestamp;temperature;humidity
65074;DHT22;52218;51.224;-2.328;2022-09-09T00:05:00;15.40;99.90
65074;DHT22;52218;51.224;-2.328;2022-09-09T00:09:10;15.40;99.90
65074;DHT22;52218;51.224;-2.328;2022-09-09T00:16:40;15.40;99.90
65074;DHT22;52218;51.224;-2.328;2022-09-09T00:20:36;15.50;99.90
65074;DHT22;52218;51.224;-2.328;2022-09-09T00:24:51;15.50;99.90
65074;DHT22;52218;51.224;-2.328;2022-09-09T00:29:02;15.50;99.90
65074;DHT22;52218;51.224;-2.328;2022-09-09T00:32:41;15.50;99.90
65074;DHT22;52218;51.224;-2.328;2022-09-09T00:36:24;15.50;99.90
65074;DHT22;52218;51.224;-2.328;2022-09-09T00:48:11;15.60;99.90
65074;DHT22;52218;51.224;-2.328;2022-09-09T00:55:48;15.70;99.90
65074;DHT22;52218;51.224;-2.328;2022-09-09T00:59:42;15.60;99.90
65074;DHT22;52218;51.224;-2.328;2022-09-09T01:03:36;15.60;99.90
65074;DHT22;52218;51.224;-2.328;2022-09-09T01:07:19;15.60;99.90
65074;DHT22;52218;51.224;-2.328;2022-09-09T01:11:01;15.60;99.90
65074;DHT22;52218;51.224;-2.328;2022-09-09T01:14:53;15.60;99.90
65074;DHT22;52218;51.224;-2.328;2022-09-09T01:18:43;15.50;99.90
65074;DHT22;52218;51.224;-2.328;2022-09-09T01:30:16;15.40;99.90
65074;DHT22;52218;51.224;-2.328;2022-09-09T01:33:59;15.40;99.90
65074;DHT22;52218;51.224;-2.328;2022-09-09T01:37:41;15.40;99.90
65074;DHT22;52218;51.224;-2.328;2022-09-09T01:41:23;15.30;99.90
65074;DHT22;52218;51.224;-2.328;2022-09-09T01:45:06;15.30;99.90
65074;DHT22;52218;51.224;-2.328;2022-09-09T01:48:50;15.20;99.90
65074;DHT22;52218;51.224;-2.328;2022-09-09T01:52:35;15.20;99.90
65074;DHT22;52218;51.224;-2.328;2022-09-09T02:00:10;15.10;99.90
65074;DHT22;52218;51.224;-2.328;2022-09-09T02:03:56;15.10;99.90
65074;DHT22;52218;51.224;-2.328;2022-09-09T02:07:46;15.10;99.90
65074;DHT22;52218;51.224;-2.328;2022-09-09T02:11:29;15.10;99.90
65074;DHT22;52218;51.224;-2.328;2022-09-09T02:19:23;15.00;99.90
65074;DHT22;52218;51.224;-2.328;2022-09-09T02:23:08;15.00;99.90
65074;DHT22;52218;51.224;-2.328;2022-09-09T02:26:53;14.90;99.90
65074;DHT22;52218;51.224;-2.328;2022-09-09T02:30:37;14.90;99.90
65074;DHT22;52218;51.224;-2.328;2022-09-09T02:34:22;14.80;99.90
65074;DHT22;52218;51.224;-2.328;2022-09-09T02:38:09;14.80;99.90
65074;DHT22;52218;51.224;-2.328;2022-09-09T02:41:52;14.80;99.90
65074;DHT22;52218;51.224;-2.328;2022-09-09T02:58:05;14.80;99.90
65074;DHT22;52218;51.224;-2.328;2022-09-09T03:01:48;14.80;99.90
65074;DHT22;52218;51.224;-2.328;2022-09-09T03:05:32;14.80;99.90
65074;DHT22;52218;51.224;-2.328;2022-09-09T03:09:14;14.80;99.90
65074;DHT22;52218;51.224;-2.328;2022-09-09T03:12:55;14.80;99.90
65074;DHT22;52218;51.224;-2.328;2022-09-09T03:16:37;14.90;99.90
65074;DHT22;52218;51.224;-2.328;2022-09-09T03:20:19;14.90;99.90
65074;DHT22;52218;51.224;-2.328;2022-09-09T03:24:01;14.90;99.90
65074;DHT22;52218;51.224;-2.328;2022-09-09T03:27:44;15.00;99.90
65074;DHT22;52218;51.224;-2.328;2022-09-09T03:31:27;15.00;99.90
65074;DHT22;52218;51.224;-2.328;2022-09-09T03:35:11;15.00;99.90
65074;DHT22;52218;51.224;-2.328;2022-09-09T03:38:54;15.00;99.90
65074;DHT22;52218;51.224;-2.328;2022-09-09T03:42:37;15.10;99.90
65074;DHT22;52218;51.224;-2.328;2022-09-09T03:46:23;15.10;99.90
65074;DHT22;52218;51.224;-2.328;2022-09-09T03:50:07;15.10;99.90
65074;DHT22;52218;51.224;-2.328;2022-09-09T03:53:52;15.10;99.90
65074;DHT22;52218;51.224;-2.328;2022-09-09T03:57:38;15.20;99.90
65074;DHT22;52218;51.224;-2.328;2022-09-09T04:01:20;15.30;99.90
65074;DHT22;52218;51.224;-2.328;2022-09-09T04:05:02;15.30;99.90
65074;DHT22;52218;51.224;-2.328;2022-09-09T04:08:44;15.30;99.90
65074;DHT22;52218;51.224;-2.328;2022-09-09T04:12:26;15.30;99.90
65074;DHT22;52218;51.224;-2.328;2022-09-09T04:16:10;15.30;99.90
65074;DHT22;52218;51.224;-2.328;2022-09-09T04:19:53;15.30;99.90
65074;DHT22;52218;51.224;-2.328;2022-09-09T04:23:35;15.30;99.90
65074;DHT22;52218;51.224;-2.328;2022-09-09T04:27:17;15.30;99.90
65074;DHT22;52218;51.224;-2.328;2022-09-09T04:31:07;15.30;99.90
65074;DHT22;52218;51.224;-2.328;2022-09-09T04:34:50;15.30;99.90
65074;DHT22;52218;51.224;-2.328;2022-09-09T04:38:32;15.20;99.90
65074;DHT22;52218;51.224;-2.328;2022-09-09T04:42:14;15.30;99.90
65074;DHT22;52218;51.224;-2.328;2022-09-09T04:45:58;15.20;99.90
65074;DHT22;52218;51.224;-2.328;2022-09-09T04:49:41;15.20;99.90
65074;DHT22;52218;51.224;-2.328;2022-09-09T04:53:23;15.20;99.90
65074;DHT22;52218;51.224;-2.328;2022-09-09T04:57:05;15.20;99.90
65074;DHT22;52218;51.224;-2.328;2022-09-09T05:00:48;15.10;99.90
65074;DHT22;52218;51.224;-2.328;2022-09-09T05:04:29;15.10;99.90
65074;DHT22;52218;51.224;-2.328;2022-09-09T05:08:11;15.10;99.90
65074;DHT22;52218;51.224;-2.328;2022-09-09T05:11:53;15.00;99.90
65074;DHT22;52218;51.224;-2.328;2022-09-09T05:15:35;15.00;99.90
65074;DHT22;52218;51.224;-2.328;2022-09-09T05:19:17;14.90;99.90
65074;DHT22;52218;51.224;-2.328;2022-09-09T05:23:01;14.90;99.90
65074;DHT22;52218;51.224;-2.328;2022-09-09T05:26:43;15.00;99.90
65074;DHT22;52218;51.224;-2.328;2022-09-09T05:30:25;14.90;99.90
65074;DHT22;52218;51.224;-2.328;2022-09-09T05:34:07;15.00;99.90
65074;DHT22;52218;51.224;-2.328;2022-09-09T05:37:49;15.00;99.90
65074;DHT22;52218;51.224;-2.328;2022-09-09T05:41:31;15.00;99.90
65074;DHT22;52218;51.224;-2.328;2022-09-09T05:45:14;15.00;99.90
65074;DHT22;52218;51.224;-2.328;2022-09-09T05:48:56;15.00;99.90
65074;DHT22;52218;51.224;-2.328;2022-09-09T05:52:38;15.00;99.90
65074;DHT22;52218;51.224;-2.328;2022-09-09T05:56:21;15.00;99.90
65074;DHT22;52218;51.224;-2.328;2022-09-09T06:00:05;15.00;99.90
65074;DHT22;52218;51.224;-2.328;2022-09-09T06:03:49;14.90;99.90
65074;DHT22;52218;51.224;-2.328;2022-09-09T06:07:31;14.80;99.90
65074;DHT22;52218;51.224;-2.328;2022-09-09T06:11:15;14.80;99.90
65074;DHT22;52218;51.224;-2.328;2022-09-09T06:14:58;14.80;99.90
65074;DHT22;52218;51.224;-2.328;2022-09-09T06:18:40;14.80;99.90
65074;DHT22;52218;51.224;-2.328;2022-09-09T06:22:23;14.80;99.90
65074;DHT22;52218;51.224;-2.328;2022-09-09T06:26:12;14.70;99.90
65074;DHT22;52218;51.224;-2.328;2022-09-09T06:29:54;14.80;99.90
65074;DHT22;52218;51.224;-2.328;2022-09-09T06:33:37;14.80;99.90
65074;DHT22;52218;51.224;-2.328;2022-09-09T06:37:22;15.00;99.90
65074;DHT22;52218;51.224;-2.328;2022-09-09T06:41:05;15.40;99.90
65074;DHT22;52218;51.224;-2.328;2022-09-09T06:44:47;15.60;99.90
65074;DHT22;52218;51.224;-2.328;2022-09-09T06:48:29;15.70;99.90
65074;DHT22;52218;51.224;-2.328;2022-09-09T06:52:11;15.80;99.90
65074;DHT22;52218;51.224;-2.328;2022-09-09T06:55:53;15.90;99.90
65074;DHT22;52218;51.224;-2.328;2022-09-09T06:59:36;16.00;99.90
65074;DHT22;52218;51.224;-2.328;2022-09-09T07:03:18;16.10;99.90
65074;DHT22;52218;51.224;-2.328;2022-09-09T07:07:00;16.40;99.90
65074;DHT22;52218;51.224;-2.328;2022-09-09T07:10:42;16.60;99.90
65074;DHT22;52218;51.224;-2.328;2022-09-09T07:14:25;16.90;99.90
65074;DHT22;52218;51.224;-2.328;2022-09-09T07:18:08;17.30;99.90
65074;DHT22;52218;51.224;-2.328;2022-09-09T07:21:51;17.70;99.90
65074;DHT22;52218;51.224;-2.328;2022-09-09T07:25:33;17.80;99.90
65074;DHT22;52218;51.224;-2.328;2022-09-09T07:29:15;17.80;99.90
65074;DHT22;52218;51.224;-2.328;2022-09-09T07:33:01;17.80;99.90
65074;DHT22;52218;51.224;-2.328;2022-09-09T07:36:44;17.70;99.90
65074;DHT22;52218;51.224;-2.328;2022-09-09T07:40:27;17.70;99.90
65074;DHT22;52218;51.224;-2.328;2022-09-09T07:44:16;17.80;99.90
65074;DHT22;52218;51.224;-2.328;2022-09-09T07:47:58;18.00;99.90
65074;DHT22;52218;51.224;-2.328;2022-09-09T07:51:43;18.20;99.90
65074;DHT22;52218;51.224;-2.328;2022-09-09T07:55:25;18.50;99.90
65074;DHT22;52218;51.224;-2.328;2022-09-09T07:59:08;19.00;99.90
65074;DHT22;52218;51.224;-2.328;2022-09-09T08:02:51;19.60;99.90
65074;DHT22;52218;51.224;-2.328;2022-09-09T08:06:40;19.80;99.90
65074;DHT22;52218;51.224;-2.328;2022-09-09T08:10:22;19.60;99.90
65074;DHT22;52218;51.224;-2.328;2022-09-09T08:14:05;19.30;99.70
65074;DHT22;52218;51.224;-2.328;2022-09-09T08:17:47;19.00;99.90
65074;DHT22;52218;51.224;-2.328;2022-09-09T08:21:31;18.70;99.90
65074;DHT22;52218;51.224;-2.328;2022-09-09T08:25:14;18.50;99.90
65074;DHT22;52218;51.224;-2.328;2022-09-09T08:28:58;18.40;99.90
65074;DHT22;52218;51.224;-2.328;2022-09-09T08:32:40;18.30;99.90
65074;DHT22;52218;51.224;-2.328;2022-09-09T08:36:29;18.40;99.90
65074;DHT22;52218;51.224;-2.328;2022-09-09T08:40:21;18.40;99.90
65074;DHT22;52218;51.224;-2.328;2022-09-09T08:48:50;18.40;99.90
65074;DHT22;52218;51.224;-2.328;2022-09-09T08:52:57;18.40;99.90
65074;DHT22;52218;51.224;-2.328;2022-09-09T08:56:42;18.40;99.90
65074;DHT22;52218;51.224;-2.328;2022-09-09T09:00:33;18.40;99.50
65074;DHT22;52218;51.224;-2.328;2022-09-09T09:08:48;18.20;99.50
65074;DHT22;52218;51.224;-2.328;2022-09-09T09:12:30;18.20;99.90
65074;DHT22;52218;51.224;-2.328;2022-09-09T09:16:31;18.10;99.90
65074;DHT22;52218;51.224;-2.328;2022-09-09T09:20:15;18.20;99.90
65074;DHT22;52218;51.224;-2.328;2022-09-09T09:23:59;18.20;99.90
65074;DHT22;52218;51.224;-2.328;2022-09-09T09:31:55;18.20;99.90
65074;DHT22;52218;51.224;-2.328;2022-09-09T09:35:38;18.10;99.90
65074;DHT22;52218;51.224;-2.328;2022-09-09T09:39:30;18.00;99.90
65074;DHT22;52218;51.224;-2.328;2022-09-09T09:43:36;18.10;99.90
65074;DHT22;52218;51.224;-2.328;2022-09-09T09:47:21;18.10;99.90
65074;DHT22;52218;51.224;-2.328;2022-09-09T09:51:12;18.20;99.90
65074;DHT22;52218;51.224;-2.328;2022-09-09T09:54:58;18.20;99.90
65074;DHT22;52218;51.224;-2.328;2022-09-09T09:58:51;18.30;99.90
65074;DHT22;52218;51.224;-2.328;2022-09-09T10:02:39;18.30;99.90
65074;DHT22;52218;51.224;-2.328;2022-09-09T10:06:33;18.20;99.90
65074;DHT22;52218;51.224;-2.328;2022-09-09T10:10:23;18.20;99.90
65074;DHT22;52218;51.224;-2.328;2022-09-09T10:14:45;18.40;99.90
65074;DHT22;52218;51.224;-2.328;2022-09-09T10:18:41;18.80;99.90
65074;DHT22;52218;51.224;-2.328;2022-09-09T10:22:31;19.20;99.90
65074;DHT22;52218;51.224;-2.328;2022-09-09T10:26:32;19.30;99.90
65074;DHT22;52218;51.224;-2.328;2022-09-09T10:30:38;19.40;99.90
65074;DHT22;52218;51.224;-2.328;2022-09-09T10:38:39;19.70;99.00
65074;DHT22;52218;51.224;-2.328;2022-09-09T10:42:26;19.60;99.40
65074;DHT22;52218;51.224;-2.328;2022-09-09T10:46:34;19.60;99.40
65074;DHT22;52218;51.224;-2.328;2022-09-09T10:58:49;19.50;99.90
65074;DHT22;52218;51.224;-2.328;2022-09-09T11:02:34;19.50;99.90
65074;DHT22;52218;51.224;-2.328;2022-09-09T11:06:19;19.60;99.90
65074;DHT22;52218;51.224;-2.328;2022-09-09T11:10:06;19.90;99.80
65074;DHT22;52218;51.224;-2.328;2022-09-09T11:17:49;20.20;99.40
65074;DHT22;52218;51.224;-2.328;2022-09-09T11:21:33;20.20;99.60
65074;DHT22;52218;51.224;-2.328;2022-09-09T11:29:28;20.00;99.80
65074;DHT22;52218;51.224;-2.328;2022-09-09T11:41:22;20.80;99.90
65074;DHT22;52218;51.224;-2.328;2022-09-09T11:45:30;21.70;97.70
65074;DHT22;52218;51.224;-2.328;2022-09-09T11:49:30;21.80;97.90
65074;DHT22;52218;51.224;-2.328;2022-09-09T11:53:22;21.60;97.40
65074;DHT22;52218;51.224;-2.328;2022-09-09T11:57:04;21.40;97.10
65074;DHT22;52218;51.224;-2.328;2022-09-09T12:00:56;21.90;96.90
65074;DHT22;52218;51.224;-2.328;2022-09-09T12:05:06;22.80;96.20
65074;DHT22;52218;51.224;-2.328;2022-09-09T12:13:20;24.10;94.10
65074;DHT22;52218;51.224;-2.328;2022-09-09T12:17:19;24.30;94.20
65074;DHT22;52218;51.224;-2.328;2022-09-09T12:29:27;23.20;94.80
65074;DHT22;52218;51.224;-2.328;2022-09-09T12:33:15;22.60;95.60
65074;DHT22;52218;51.224;-2.328;2022-09-09T12:37:13;22.20;96.00
65074;DHT22;52218;51.224;-2.328;2022-09-09T12:40:57;22.10;96.50
65074;DHT22;52218;51.224;-2.328;2022-09-09T12:45:00;22.30;95.40
65074;DHT22;52218;51.224;-2.328;2022-09-09T12:48:42;22.80;94.60
65074;DHT22;52218;51.224;-2.328;2022-09-09T12:52:35;22.70;94.40
65074;DHT22;52218;51.224;-2.328;2022-09-09T12:56:20;22.40;95.00
65074;DHT22;52218;51.224;-2.328;2022-09-09T13:00:12;22.00;95.70
65074;DHT22;52218;51.224;-2.328;2022-09-09T13:03:57;21.50;96.80
65074;DHT22;52218;51.224;-2.328;2022-09-09T13:07:39;20.80;98.80
65074;DHT22;52218;51.224;-2.328;2022-09-09T13:15:22;19.40;99.90
65074;DHT22;52218;51.224;-2.328;2022-09-09T13:19:10;19.00;99.90
65074;DHT22;52218;51.224;-2.328;2022-09-09T13:22:55;19.00;99.90
65074;DHT22;52218;51.224;-2.328;2022-09-09T13:26:37;18.90;99.90
65074;DHT22;52218;51.224;-2.328;2022-09-09T13:30:30;18.90;99.90
65074;DHT22;52218;51.224;-2.328;2022-09-09T13:34:27;18.90;99.90
65074;DHT22;52218;51.224;-2.328;2022-09-09T13:38:09;18.90;99.90
65074;DHT22;52218;51.224;-2.328;2022-09-09T13:41:51;19.00;99.90
65074;DHT22;52218;51.224;-2.328;2022-09-09T13:45:35;19.30;99.90
65074;DHT22;52218;51.224;-2.328;2022-09-09T13:49:22;19.40;99.90
65074;DHT22;52218;51.224;-2.328;2022-09-09T13:53:04;19.50;99.90
65074;DHT22;52218;51.224;-2.328;2022-09-09T13:56:46;19.60;99.90
65074;DHT22;52218;51.224;-2.328;2022-09-09T14:00:33;19.70;99.90
65074;DHT22;52218;51.224;-2.328;2022-09-09T14:04:16;19.90;99.90
65074;DHT22;52218;51.224;-2.328;2022-09-09T14:07:58;20.20;99.90
65074;DHT22;52218;51.224;-2.328;2022-09-09T14:11:43;20.50;99.90
65074;DHT22;52218;51.224;-2.328;2022-09-09T14:15:25;20.30;99.90
65074;DHT22;52218;51.224;-2.328;2022-09-09T14:19:09;20.10;99.90
65074;DHT22;52218;51.224;-2.328;2022-09-09T14:22:51;19.90;99.90
65074;DHT22;52218;51.224;-2.328;2022-09-09T14:26:34;20.00;99.90
65074;DHT22;52218;51.224;-2.328;2022-09-09T14:30:16;20.10;99.90
65074;DHT22;52218;51.224;-2.328;2022-09-09T14:33:58;20.10;99.90
65074;DHT22;52218;51.224;-2.328;2022-09-09T14:37:40;20.30;99.90
65074;DHT22;52218;51.224;-2.328;2022-09-09T14:41:22;20.30;99.90
65074;DHT22;52218;51.224;-2.328;2022-09-09T14:45:05;20.20;99.90
65074;DHT22;52218;51.224;-2.328;2022-09-09T14:48:47;20.20;99.90
65074;DHT22;52218;51.224;-2.328;2022-09-09T14:52:32;20.30;99.90
65074;DHT22;52218;51.224;-2.328;2022-09-09T14:56:19;20.30;99.90
65074;DHT22;52218;51.224;-2.328;2022-09-09T15:00:06;20.30;99.90
65074;DHT22;52218;51.224;-2.328;2022-09-09T15:03:59;20.40;99.90
65074;DHT22;52218;51.224;-2.328;2022-09-09T15:07:42;20.50;99.90
65074;DHT22;52218;51.224;-2.328;2022-09-09T15:11:26;21.00;99.90
65074;DHT22;52218;51.224;-2.328;2022-09-09T15:15:09;21.10;99.40
65074;DHT22;52218;51.224;-2.328;2022-09-09T15:18:54;21.20;99.00
65074;DHT22;52218;51.224;-2.328;2022-09-09T15:22:36;21.20;98.80
65074;DHT22;52218;51.224;-2.328;2022-09-09T15:26:19;21.00;99.20
65074;DHT22;52218;51.224;-2.328;2022-09-09T15:30:03;20.80;99.60
65074;DHT22;52218;51.224;-2.328;2022-09-09T15:33:59;20.50;99.60
65074;DHT22;52218;51.224;-2.328;2022-09-09T15:37:44;20.20;99.90
65074;DHT22;52218;51.224;-2.328;2022-09-09T15:41:27;20.00;99.90
65074;DHT22;52218;51.224;-2.328;2022-09-09T15:45:09;19.80;99.90
65074;DHT22;52218;51.224;-2.328;2022-09-09T15:48:52;19.70;99.90
65074;DHT22;52218;51.224;-2.328;2022-09-09T15:52:35;19.70;99.90
65074;DHT22;52218;51.224;-2.328;2022-09-09T15:56:17;19.70;99.90
65074;DHT22;52218;51.224;-2.328;2022-09-09T15:59:59;19.80;99.90
65074;DHT22;52218;51.224;-2.328;2022-09-09T16:03:41;19.80;99.90
65074;DHT22;52218;51.224;-2.328;2022-09-09T16:07:26;19.90;99.90
65074;DHT22;52218;51.224;-2.328;2022-09-09T16:11:25;20.00;99.90
65074;DHT22;52218;51.224;-2.328;2022-09-09T16:15:07;20.10;99.90
65074;DHT22;52218;51.224;-2.328;2022-09-09T16:18:52;20.10;99.90
65074;DHT22;52218;51.224;-2.328;2022-09-09T16:22:34;20.30;99.90
65074;DHT22;52218;51.224;-2.328;2022-09-09T16:26:17;20.40;99.90
65074;DHT22;52218;51.224;-2.328;2022-09-09T16:30:00;20.40;99.90
65074;DHT22;52218;51.224;-2.328;2022-09-09T16:33:42;20.30;99.90
65074;DHT22;52218;51.224;-2.328;2022-09-09T16:37:24;20.20;99.90
65074;DHT22;52218;51.224;-2.328;2022-09-09T16:41:08;20.10;99.90
65074;DHT22;52218;51.224;-2.328;2022-09-09T16:44:50;20.00;99.90
65074;DHT22;52218;51.224;-2.328;2022-09-09T16:48:32;19.90;99.90
65074;DHT22;52218;51.224;-2.328;2022-09-09T16:52:14;19.70;99.90
65074;DHT22;52218;51.224;-2.328;2022-09-09T16:56:08;19.70;99.90
65074;DHT22;52218;51.224;-2.328;2022-09-09T16:59:51;19.70;99.90
65074;DHT22;52218;51.224;-2.328;2022-09-09T17:03:35;19.70;99.90
65074;DHT22;52218;51.224;-2.328;2022-09-09T17:07:18;19.80;99.90
65074;DHT22;52218;51.224;-2.328;2022-09-09T17:11:00;19.80;99.90
65074;DHT22;52218;51.224;-2.328;2022-09-09T17:14:42;19.80;99.90
65074;DHT22;52218;51.224;-2.328;2022-09-09T17:18:26;19.80;99.90
65074;DHT22;52218;51.224;-2.328;2022-09-09T17:22:09;19.80;99.90
65074;DHT22;52218;51.224;-2.328;2022-09-09T17:25:59;19.80;99.90
65074;DHT22;52218;51.224;-2.328;2022-09-09T17:29:41;19.80;99.90
65074;DHT22;52218;51.224;-2.328;2022-09-09T17:33:24;19.80;99.90
65074;DHT22;52218;51.224;-2.328;2022-09-09T17:37:07;19.80;99.90
65074;DHT22;52218;51.224;-2.328;2022-09-09T17:40:49;19.80;99.90
65074;DHT22;52218;51.224;-2.328;2022-09-09T17:44:32;19.70;99.90
65074;DHT22;52218;51.224;-2.328;2022-09-09T17:48:14;19.60;99.90
65074;DHT22;52218;51.224;-2.328;2022-09-09T17:51:56;19.50;99.90
65074;DHT22;52218;51.224;-2.328;2022-09-09T17:55:38;19.30;99.90
65074;DHT22;52218;51.224;-2.328;2022-09-09T17:59:20;19.10;99.90
65074;DHT22;52218;51.224;-2.328;2022-09-09T18:03:01;19.00;99.90
65074;DHT22;52218;51.224;-2.328;2022-09-09T18:06:46;18.90;99.90
65074;DHT22;52218;51.224;-2.328;2022-09-09T18:10:29;18.70;99.90
65074;DHT22;52218;51.224;-2.328;2022-09-09T18:14:17;18.70;99.90
65074;DHT22;52218;51.224;-2.328;2022-09-09T18:18:00;18.60;99.90
65074;DHT22;52218;51.224;-2.328;2022-09-09T18:21:44;18.60;99.90
65074;DHT22;52218;51.224;-2.328;2022-09-09T18:25:26;18.60;99.90
65074;DHT22;52218;51.224;-2.328;2022-09-09T18:29:10;18.50;99.90
65074;DHT22;52218;51.224;-2.328;2022-09-09T18:32:53;18.50;99.90
65074;DHT22;52218;51.224;-2.328;2022-09-09T18:36:46;18.40;99.90
65074;DHT22;52218;51.224;-2.328;2022-09-09T18:40:30;18.40;99.90
65074;DHT22;52218;51.224;-2.328;2022-09-09T18:44:15;18.30;99.90
65074;DHT22;52218;51.224;-2.328;2022-09-09T18:47:57;18.20;99.90
65074;DHT22;52218;51.224;-2.328;2022-09-09T18:51:40;18.20;99.90
65074;DHT22;52218;51.224;-2.328;2022-09-09T18:55:23;18.10;99.90
65074;DHT22;52218;51.224;-2.328;2022-09-09T18:59:07;18.10;99.90
65074;DHT22;52218;51.224;-2.328;2022-09-09T19:02:49;18.00;99.90
65074;DHT22;52218;51.224;-2.328;2022-09-09T19:06:37;18.00;99.90
65074;DHT22;52218;51.224;-2.328;2022-09-09T19:10:19;18.00;99.90
65074;DHT22;52218;51.224;-2.328;2022-09-09T19:14:04;18.00;99.90
65074;DHT22;52218;51.224;-2.328;2022-09-09T19:17:46;18.00;99.90
65074;DHT22;52218;51.224;-2.328;2022-09-09T19:21:33;17.90;99.90
65074;DHT22;52218;51.224;-2.328;2022-09-09T19:25:16;17.90;99.90
65074;DHT22;52218;51.224;-2.328;2022-09-09T19:28:58;17.90;99.90
65074;DHT22;52218;51.224;-2.328;2022-09-09T19:32:41;17.90;99.90
65074;DHT22;52218;51.224;-2.328;2022-09-09T19:36:34;17.90;99.90
65074;DHT22;52218;51.224;-2.328;2022-09-09T19:40:16;17.90;99.90
65074;DHT22;52218;51.224;-2.328;2022-09-09T19:44:00;17.80;99.90
65074;DHT22;52218;51.224;-2.328;2022-09-09T19:47:43;17.80;99.90
65074;DHT22;52218;51.224;-2.328;2022-09-09T19:51:25;17.80;99.90
65074;DHT22;52218;51.224;-2.328;2022-09-09T19:55:07;17.80;99.90
65074;DHT22;52218;51.224;-2.328;2022-09-09T19:58:50;17.70;99.90
65074;DHT22;52218;51.224;-2.328;2022-09-09T20:02:32;17.70;99.90
65074;DHT22;52218;51.224;-2.328;2022-09-09T20:06:16;17.70;99.90
65074;DHT22;52218;51.224;-2.328;2022-09-09T20:09:58;17.60;99.90
65074;DHT22;52218;51.224;-2.328;2022-09-09T20:13:40;17.60;99.90
65074;DHT22;52218;51.224;-2.328;2022-09-09T20:17:22;17.50;99.90
65074;DHT22;52218;51.224;-2.328;2022-09-09T20:21:11;17.50;99.90
65074;DHT22;52218;51.224;-2.328;2022-09-09T20:24:53;17.40;99.90
65074;DHT22;52218;51.224;-2.328;2022-09-09T20:28:36;17.30;99.90
65074;DHT22;52218;51.224;-2.328;2022-09-09T20:32:19;17.30;99.90
65074;DHT22;52218;51.224;-2.328;2022-09-09T20:36:20;17.20;99.90
65074;DHT22;52218;51.224;-2.328;2022-09-09T20:40:02;17.20;99.90
65074;DHT22;52218;51.224;-2.328;2022-09-09T20:43:45;17.20;99.90
65074;DHT22;52218;51.224;-2.328;2022-09-09T20:47:30;17.10;99.90
65074;DHT22;52218;51.224;-2.328;2022-09-09T20:51:14;17.10;99.90
65074;DHT22;52218;51.224;-2.328;2022-09-09T20:54:58;17.00;99.90
65074;DHT22;52218;51.224;-2.328;2022-09-09T20:58:40;16.90;99.90
65074;DHT22;52218;51.224;-2.328;2022-09-09T21:02:21;16.90;99.90
65074;DHT22;52218;51.224;-2.328;2022-09-09T21:06:04;16.80;99.90
65074;DHT22;52218;51.224;-2.328;2022-09-09T21:09:47;16.70;99.90
65074;DHT22;52218;51.224;-2.328;2022-09-09T21:13:30;16.70;99.90
65074;DHT22;52218;51.224;-2.328;2022-09-09T21:17:13;16.60;99.90
65074;DHT22;52218;51.224;-2.328;2022-09-09T21:20:55;16.60;99.90
65074;DHT22;52218;51.224;-2.328;2022-09-09T21:24:37;16.50;99.90
65074;DHT22;52218;51.224;-2.328;2022-09-09T21:28:19;16.50;99.90
65074;DHT22;52218;51.224;-2.328;2022-09-09T21:32:02;16.40;99.90
65074;DHT22;52218;51.224;-2.328;2022-09-09T21:35:44;16.40;99.90
65074;DHT22;52218;51.224;-2.328;2022-09-09T21:39:27;16.30;99.90
65074;DHT22;52218;51.224;-2.328;2022-09-09T21:43:09;16.30;99.90
65074;DHT22;52218;51.224;-2.328;2022-09-09T21:46:51;16.20;99.90
65074;DHT22;52218;51.224;-2.328;2022-09-09T21:50:37;16.20;99.90
65074;DHT22;52218;51.224;-2.328;2022-09-09T21:54:19;16.30;99.90
65074;DHT22;52218;51.224;-2.328;2022-09-09T21:58:03;16.20;99.90
65074;DHT22;52218;51.224;-2.328;2022-09-09T22:01:45;16.30;99.90
65074;DHT22;52218;51.224;-2.328;2022-09-09T22:05:28;16.30;99.90
65074;DHT22;52218;51.224;-2.328;2022-09-09T22:09:11;16.30;99.90
65074;DHT22;52218;51.224;-2.328;2022-09-09T22:12:53;16.30;99.90
65074;DHT22;52218;51.224;-2.328;2022-09-09T22:16:35;16.30;99.90
65074;DHT22;52218;51.224;-2.328;2022-09-09T22:20:17;16.30;99.90
65074;DHT22;52218;51.224;-2.328;2022-09-09T22:24:01;16.30;99.90
65074;DHT22;52218;51.224;-2.328;2022-09-09T22:27:43;16.20;99.90
65074;DHT22;52218;51.224;-2.328;2022-09-09T22:31:26;16.10;99.90
65074;DHT22;52218;51.224;-2.328;2022-09-09T22:35:08;16.10;99.90
65074;DHT22;52218;51.224;-2.328;2022-09-09T22:38:51;16.00;99.90
65074;DHT22;52218;51.224;-2.328;2022-09-09T22:42:33;16.00;99.90
65074;DHT22;52218;51.224;-2.328;2022-09-09T22:46:16;16.00;99.90
65074;DHT22;52218;51.224;-2.328;2022-09-09T22:49:57;15.90;99.90
65074;DHT22;52218;51.224;-2.328;2022-09-09T22:53:40;15.90;99.90
65074;DHT22;52218;51.224;-2.328;2022-09-09T22:57:22;15.80;99.90
65074;DHT22;52218;51.224;-2.328;2022-09-09T23:01:14;15.80;99.90
65074;DHT22;52218;51.224;-2.328;2022-09-09T23:04:56;15.70;99.90
65074;DHT22;52218;51.224;-2.328;2022-09-09T23:08:40;15.70;99.90
65074;DHT22;52218;51.224;-2.328;2022-09-09T23:12:21;15.60;99.90
65074;DHT22;52218;51.224;-2.328;2022-09-09T23:16:17;15.60;99.90
65074;DHT22;52218;51.224;-2.328;2022-09-09T23:20:01;15.50;99.90
65074;DHT22;52218;51.224;-2.328;2022-09-09T23:23:44;15.50;99.90
65074;DHT22;52218;51.224;-2.328;2022-09-09T23:27:26;15.50;99.90
65074;DHT22;52218;51.224;-2.328;2022-09-09T23:31:09;15.40;99.90
65074;DHT22;52218;51.224;-2.328;2022-09-09T23:34:51;15.40;99.90
65074;DHT22;52218;51.224;-2.328;2022-09-09T23:38:34;15.40;99.90
65074;DHT22;52218;51.224;-2.328;2022-09-09T23:42:18;15.30;99.90
65074;DHT22;52218;51.224;-2.328;2022-09-09T23:46:00;15.30;99.90
65074;DHT22;52218;51.224;-2.328;2022-09-09T23:49:43;15.30;99.90
65074;DHT22;52218;51.224;-2.328;2022-09-09T23:53:25;15.20;99.90
65074;DHT22;52218;51.224;-2.328;2022-09-09T23:57:07;15.20;99.90
